CG Campbell — NRDC — position and weather

sailwx.info

Track history (hours):
 
Tides and Currents Weather Stations Pressure Air Temp Water Temp Dewpoint Dewpoint Depression Visibility Wind Speed Wind Dir Waves Ship Positions

CG Campbell

Last reported at 2018-Apr-16 01:03 UTC. Time now 2018-Apr-19 23:18 UTC.
Position N 09°13' W 079°55'.

Length 82 m; draft 4.3 m.

Type: Law enforcement. MMSI: 367289000.

Date/timePositionNaut miles runAvg speedWind from/ knotsBaromVisibWave heightAir tempDewpointWater temp
2018-Apr-16 01:03N 09°13' W 079°55'112.0
2018-Apr-16 00:59N 09°13' W 079°55'3 5.6
2018-Apr-16 00:29N 09°16' W 079°55'0 0.6
2018-Apr-16 00:00N 09°17' W 079°55'0 0.4
2018-Apr-15 23:30N 09°17' W 079°55'1 1.6
2018-Apr-15 23:00N 09°18' W 079°55'0 0.7
2018-Apr-15 22:30N 09°18' W 079°55'1 2.1
2018-Apr-15 22:00N 09°19' W 079°55'2 4.7
2018-Apr-15 21:30N 09°21' W 079°55'2 3.0
2018-Apr-15 20:58N 09°23' W 079°55'0 0.0
2018-Apr-15 20:30N 09°23' W 079°55'0 0.9
2018-Apr-15 20:00N 09°23' W 079°55'5 9.6
2018-Apr-15 19:30N 09°28' W 079°54'1011.8
2018-Apr-15 18:39N 09°38' W 079°54'  
2018-Apr-10 21:35N 10°25' W 075°33'0 0.1
2018-Apr-10 21:29N 10°25' W 075°33'0 0.0
2018-Apr-09 15:41N 10°25' W 075°33'0 0.5
2018-Apr-09 15:30N 10°24' W 075°33'1 1.3
2018-Apr-09 15:00N 10°24' W 075°33'5 9.5
2018-Apr-09 14:29N 10°19' W 075°34'5 9.6
2018-Apr-09 13:59N 10°19' W 075°39'4 7.6
2018-Apr-09 13:30N 10°19' W 075°42'3 6.0
2018-Apr-09 13:00N 10°21' W 075°45'3 6.1
2018-Apr-09 12:29N 10°24' W 075°47'3 5.6
2018-Apr-09 12:00N 10°26' W 075°49'  
Track history (hours):
 
Tides and Currents Weather Stations Pressure Air Temp Water Temp Dewpoint Dewpoint Depression Visibility Wind Speed Wind Dir Waves Ship Positions

CG Campbell

Last reported at 2018-Apr-16 01:03 UTC. Time now 2018-Apr-19 23:18 UTC.
Position N 09°13' W 079°55'.

Length 82 m; draft 4.3 m.

Type: Law enforcement. MMSI: 367289000.

Date/timePositionNaut miles runAvg speedWind from/ knotsBaromVisibWave heightAir tempDewpointWater temp
2018-Apr-16 01:03N 09°13' W 079°55'112.0
2018-Apr-16 00:59N 09°13' W 079°55'3 5.6
2018-Apr-16 00:29N 09°16' W 079°55'0 0.6
2018-Apr-16 00:00N 09°17' W 079°55'0 0.4
2018-Apr-15 23:30N 09°17' W 079°55'1 1.6
2018-Apr-15 23:00N 09°18' W 079°55'0 0.7
2018-Apr-15 22:30N 09°18' W 079°55'1 2.1
2018-Apr-15 22:00N 09°19' W 079°55'2 4.7
2018-Apr-15 21:30N 09°21' W 079°55'2 3.0
2018-Apr-15 20:58N 09°23' W 079°55'0 0.0
2018-Apr-15 20:30N 09°23' W 079°55'0 0.9
2018-Apr-15 20:00N 09°23' W 079°55'5 9.6
2018-Apr-15 19:30N 09°28' W 079°54'1011.8
2018-Apr-15 18:39N 09°38' W 079°54'  
2018-Apr-10 21:35N 10°25' W 075°33'0 0.1
2018-Apr-10 21:29N 10°25' W 075°33'0 0.0
2018-Apr-09 15:41N 10°25' W 075°33'0 0.5
2018-Apr-09 15:30N 10°24' W 075°33'1 1.3
2018-Apr-09 15:00N 10°24' W 075°33'5 9.5
2018-Apr-09 14:29N 10°19' W 075°34'5 9.6
2018-Apr-09 13:59N 10°19' W 075°39'4 7.6
2018-Apr-09 13:30N 10°19' W 075°42'3 6.0
2018-Apr-09 13:00N 10°21' W 075°45'3 6.1
2018-Apr-09 12:29N 10°24' W 075°47'3 5.6
2018-Apr-09 12:00N 10°26' W 075°49'  

Dump ship's entire track history